sensor_id;sensor_type;location;lat;lon;timestamp;P1;durP1;ratioP1;P2;durP2;ratioP2
15194;SDS011;7698;42.478;23.756;2022-11-20T00:00:01;13.43;;;12.02;;
15194;SDS011;7698;42.478;23.756;2022-11-20T00:02:27;18.63;;;16.45;;
15194;SDS011;7698;42.478;23.756;2022-11-20T00:04:54;17.42;;;15.60;;
15194;SDS011;7698;42.478;23.756;2022-11-20T00:07:22;18.55;;;15.35;;
15194;SDS011;7698;42.478;23.756;2022-11-20T00:09:49;17.63;;;14.73;;
15194;SDS011;7698;42.478;23.756;2022-11-20T00:12:15;24.60;;;20.77;;
15194;SDS011;7698;42.478;23.756;2022-11-20T00:14:42;22.92;;;20.45;;
15194;SDS011;7698;42.478;23.756;2022-11-20T00:17:08;17.52;;;15.65;;
15194;SDS011;7698;42.478;23.756;2022-11-20T00:19:35;22.63;;;19.00;;
15194;SDS011;7698;42.478;23.756;2022-11-20T00:22:02;21.55;;;18.33;;
15194;SDS011;7698;42.478;23.756;2022-11-20T00:24:30;18.33;;;16.40;;
15194;SDS011;7698;42.478;23.756;2022-11-20T00:26:57;18.15;;;16.20;;
15194;SDS011;7698;42.478;23.756;2022-11-20T00:29:23;17.48;;;15.77;;
15194;SDS011;7698;42.478;23.756;2022-11-20T00:31:50;17.45;;;15.52;;
15194;SDS011;7698;42.478;23.756;2022-11-20T00:34:17;22.05;;;19.55;;
15194;SDS011;7698;42.478;23.756;2022-11-20T00:36:43;22.05;;;18.73;;
15194;SDS011;7698;42.478;23.756;2022-11-20T00:39:10;21.13;;;18.42;;
15194;SDS011;7698;42.478;23.756;2022-11-20T00:41:38;21.85;;;18.67;;
15194;SDS011;7698;42.478;23.756;2022-11-20T00:44:04;19.95;;;16.88;;
15194;SDS011;7698;42.478;23.756;2022-11-20T00:46:31;21.05;;;18.17;;
15194;SDS011;7698;42.478;23.756;2022-11-20T00:48:58;20.17;;;16.70;;
15194;SDS011;7698;42.478;23.756;2022-11-20T00:51:25;17.10;;;15.05;;
15194;SDS011;7698;42.478;23.756;2022-11-20T00:53:52;19.80;;;16.58;;
15194;SDS011;7698;42.478;23.756;2022-11-20T00:56:20;20.88;;;18.20;;
15194;SDS011;7698;42.478;23.756;2022-11-20T00:58:48;20.20;;;15.73;;
15194;SDS011;7698;42.478;23.756;2022-11-20T01:01:15;21.63;;;19.40;;
15194;SDS011;7698;42.478;23.756;2022-11-20T01:03:43;28.38;;;23.10;;
15194;SDS011;7698;42.478;23.756;2022-11-20T01:06:10;24.98;;;21.23;;
15194;SDS011;7698;42.478;23.756;2022-11-20T01:08:37;22.17;;;18.80;;
15194;SDS011;7698;42.478;23.756;2022-11-20T01:11:05;22.80;;;17.95;;
15194;SDS011;7698;42.478;23.756;2022-11-20T01:13:31;23.02;;;20.48;;
15194;SDS011;7698;42.478;23.756;2022-11-20T01:16:06;21.63;;;19.00;;
15194;SDS011;7698;42.478;23.756;2022-11-20T01:18:33;19.73;;;17.63;;
15194;SDS011;7698;42.478;23.756;2022-11-20T01:21:01;22.80;;;19.02;;
15194;SDS011;7698;42.478;23.756;2022-11-20T01:23:29;20.80;;;18.02;;
15194;SDS011;7698;42.478;23.756;2022-11-20T01:25:56;16.80;;;15.20;;
15194;SDS011;7698;42.478;23.756;2022-11-20T01:28:22;15.55;;;13.88;;
15194;SDS011;7698;42.478;23.756;2022-11-20T01:30:49;14.95;;;13.38;;
15194;SDS011;7698;42.478;23.756;2022-11-20T01:33:17;16.95;;;14.73;;
15194;SDS011;7698;42.478;23.756;2022-11-20T01:35:43;18.38;;;15.00;;
15194;SDS011;7698;42.478;23.756;2022-11-20T01:38:10;18.15;;;15.63;;
15194;SDS011;7698;42.478;23.756;2022-11-20T01:40:36;18.98;;;16.67;;
15194;SDS011;7698;42.478;23.756;2022-11-20T01:43:09;17.70;;;15.75;;
15194;SDS011;7698;42.478;23.756;2022-11-20T01:48:31;16.58;;;14.88;;
15194;SDS011;7698;42.478;23.756;2022-11-20T01:50:59;19.23;;;15.82;;
15194;SDS011;7698;42.478;23.756;2022-11-20T01:53:27;18.45;;;16.55;;
15194;SDS011;7698;42.478;23.756;2022-11-20T01:55:56;15.38;;;13.77;;
15194;SDS011;7698;42.478;23.756;2022-11-20T01:58:24;15.65;;;14.15;;
15194;SDS011;7698;42.478;23.756;2022-11-20T02:00:51;15.85;;;14.20;;
15194;SDS011;7698;42.478;23.756;2022-11-20T02:03:18;17.05;;;15.40;;
15194;SDS011;7698;42.478;23.756;2022-11-20T02:05:47;18.75;;;15.95;;
15194;SDS011;7698;42.478;23.756;2022-11-20T02:08:15;15.45;;;13.85;;
15194;SDS011;7698;42.478;23.756;2022-11-20T02:10:42;20.85;;;18.70;;
15194;SDS011;7698;42.478;23.756;2022-11-20T02:13:09;21.35;;;19.08;;
15194;SDS011;7698;42.478;23.756;2022-11-20T02:15:53;22.30;;;19.77;;
15194;SDS011;7698;42.478;23.756;2022-11-20T02:18:20;19.15;;;17.15;;
15194;SDS011;7698;42.478;23.756;2022-11-20T02:20:49;18.63;;;16.67;;
15194;SDS011;7698;42.478;23.756;2022-11-20T02:23:16;22.02;;;17.75;;
15194;SDS011;7698;42.478;23.756;2022-11-20T02:25:47;20.33;;;18.23;;
15194;SDS011;7698;42.478;23.756;2022-11-20T02:28:14;21.40;;;19.02;;
15194;SDS011;7698;42.478;23.756;2022-11-20T02:30:41;15.85;;;14.35;;
15194;SDS011;7698;42.478;23.756;2022-11-20T02:33:07;18.67;;;16.77;;
15194;SDS011;7698;42.478;23.756;2022-11-20T02:35:41;19.17;;;17.23;;
15194;SDS011;7698;42.478;23.756;2022-11-20T02:38:08;16.85;;;15.20;;
15194;SDS011;7698;42.478;23.756;2022-11-20T02:40:35;16.08;;;14.48;;
15194;SDS011;7698;42.478;23.756;2022-11-20T02:43:03;14.48;;;13.10;;
15194;SDS011;7698;42.478;23.756;2022-11-20T02:45:29;15.45;;;14.02;;
15194;SDS011;7698;42.478;23.756;2022-11-20T02:47:56;15.18;;;13.73;;
15194;SDS011;7698;42.478;23.756;2022-11-20T02:50:23;13.73;;;12.23;;
15194;SDS011;7698;42.478;23.756;2022-11-20T02:52:49;14.43;;;12.73;;
15194;SDS011;7698;42.478;23.756;2022-11-20T02:55:16;16.02;;;13.68;;
15194;SDS011;7698;42.478;23.756;2022-11-20T02:57:42;12.48;;;11.30;;
15194;SDS011;7698;42.478;23.756;2022-11-20T03:00:11;16.77;;;14.02;;
15194;SDS011;7698;42.478;23.756;2022-11-20T03:02:38;16.95;;;15.07;;
15194;SDS011;7698;42.478;23.756;2022-11-20T03:05:04;13.98;;;12.55;;
15194;SDS011;7698;42.478;23.756;2022-11-20T03:07:31;12.10;;;11.02;;
15194;SDS011;7698;42.478;23.756;2022-11-20T03:09:58;15.57;;;13.55;;
15194;SDS011;7698;42.478;23.756;2022-11-20T03:12:24;19.98;;;18.15;;
15194;SDS011;7698;42.478;23.756;2022-11-20T03:14:51;23.10;;;20.50;;
15194;SDS011;7698;42.478;23.756;2022-11-20T03:17:19;20.52;;;18.75;;
15194;SDS011;7698;42.478;23.756;2022-11-20T03:19:45;16.08;;;14.60;;
15194;SDS011;7698;42.478;23.756;2022-11-20T03:22:12;17.77;;;15.98;;
15194;SDS011;7698;42.478;23.756;2022-11-20T03:24:38;17.13;;;15.52;;
15194;SDS011;7698;42.478;23.756;2022-11-20T03:27:05;18.35;;;16.58;;
15194;SDS011;7698;42.478;23.756;2022-11-20T03:29:32;17.25;;;15.52;;
15194;SDS011;7698;42.478;23.756;2022-11-20T03:31:58;16.15;;;14.65;;
15194;SDS011;7698;42.478;23.756;2022-11-20T03:34:26;14.20;;;12.82;;
15194;SDS011;7698;42.478;23.756;2022-11-20T03:36:53;12.38;;;11.10;;
15194;SDS011;7698;42.478;23.756;2022-11-20T03:39:19;11.93;;;10.82;;
15194;SDS011;7698;42.478;23.756;2022-11-20T03:41:46;11.40;;;10.23;;
15194;SDS011;7698;42.478;23.756;2022-11-20T03:44:12;18.83;;;16.92;;
15194;SDS011;7698;42.478;23.756;2022-11-20T03:46:39;18.83;;;17.13;;
15194;SDS011;7698;42.478;23.756;2022-11-20T03:49:05;15.18;;;13.63;;
15194;SDS011;7698;42.478;23.756;2022-11-20T03:51:34;14.32;;;12.93;;
15194;SDS011;7698;42.478;23.756;2022-11-20T03:54:01;15.98;;;14.57;;
15194;SDS011;7698;42.478;23.756;2022-11-20T03:56:29;222.70;;;205.18;;
15194;SDS011;7698;42.478;23.756;2022-11-20T03:58:56;273.73;;;252.45;;
15194;SDS011;7698;42.478;23.756;2022-11-20T04:01:23;279.42;;;258.00;;
15194;SDS011;7698;42.478;23.756;2022-11-20T04:03:51;159.80;;;147.40;;
15194;SDS011;7698;42.478;23.756;2022-11-20T04:06:19;136.85;;;125.75;;
15194;SDS011;7698;42.478;23.756;2022-11-20T04:08:47;123.75;;;114.05;;
15194;SDS011;7698;42.478;23.756;2022-11-20T04:11:15;107.88;;;99.35;;
15194;SDS011;7698;42.478;23.756;2022-11-20T04:13:42;83.47;;;77.07;;
15194;SDS011;7698;42.478;23.756;2022-11-20T04:16:09;84.03;;;77.45;;
15194;SDS011;7698;42.478;23.756;2022-11-20T04:18:36;78.28;;;72.13;;
15194;SDS011;7698;42.478;23.756;2022-11-20T04:21:02;78.10;;;71.72;;
15194;SDS011;7698;42.478;23.756;2022-11-20T04:23:29;71.22;;;65.40;;
15194;SDS011;7698;42.478;23.756;2022-11-20T04:26:01;57.67;;;53.15;;
15194;SDS011;7698;42.478;23.756;2022-11-20T04:28:28;45.50;;;41.83;;
15194;SDS011;7698;42.478;23.756;2022-11-20T04:31:00;41.65;;;38.28;;
15194;SDS011;7698;42.478;23.756;2022-11-20T04:33:27;33.17;;;30.42;;
15194;SDS011;7698;42.478;23.756;2022-11-20T04:35:54;26.83;;;24.63;;
15194;SDS011;7698;42.478;23.756;2022-11-20T04:38:20;26.75;;;24.48;;
15194;SDS011;7698;42.478;23.756;2022-11-20T04:40:47;23.10;;;21.25;;
15194;SDS011;7698;42.478;23.756;2022-11-20T04:43:15;27.48;;;25.17;;
15194;SDS011;7698;42.478;23.756;2022-11-20T04:45:41;22.17;;;20.33;;
15194;SDS011;7698;42.478;23.756;2022-11-20T04:48:08;19.05;;;17.45;;
15194;SDS011;7698;42.478;23.756;2022-11-20T04:50:34;17.67;;;16.17;;
15194;SDS011;7698;42.478;23.756;2022-11-20T04:53:05;19.02;;;17.38;;
15194;SDS011;7698;42.478;23.756;2022-11-20T04:55:32;16.10;;;14.70;;
15194;SDS011;7698;42.478;23.756;2022-11-20T04:57:58;15.25;;;13.85;;
15194;SDS011;7698;42.478;23.756;2022-11-20T05:00:26;12.50;;;11.50;;
15194;SDS011;7698;42.478;23.756;2022-11-20T05:02:53;16.08;;;14.50;;
15194;SDS011;7698;42.478;23.756;2022-11-20T05:05:19;15.30;;;14.00;;
15194;SDS011;7698;42.478;23.756;2022-11-20T05:07:46;14.43;;;13.23;;
15194;SDS011;7698;42.478;23.756;2022-11-20T05:10:13;15.60;;;14.00;;
15194;SDS011;7698;42.478;23.756;2022-11-20T05:12:39;15.23;;;13.77;;
15194;SDS011;7698;42.478;23.756;2022-11-20T05:15:06;13.15;;;11.95;;
15194;SDS011;7698;42.478;23.756;2022-11-20T05:17:35;13.15;;;12.02;;
15194;SDS011;7698;42.478;23.756;2022-11-20T05:20:01;16.65;;;14.95;;
15194;SDS011;7698;42.478;23.756;2022-11-20T05:22:28;20.92;;;18.92;;
15194;SDS011;7698;42.478;23.756;2022-11-20T05:24:54;17.70;;;15.93;;
15194;SDS011;7698;42.478;23.756;2022-11-20T05:27:21;18.33;;;16.48;;
15194;SDS011;7698;42.478;23.756;2022-11-20T05:29:47;15.40;;;13.90;;
15194;SDS011;7698;42.478;23.756;2022-11-20T05:32:14;14.70;;;13.23;;
15194;SDS011;7698;42.478;23.756;2022-11-20T05:34:42;17.42;;;15.73;;
15194;SDS011;7698;42.478;23.756;2022-11-20T05:37:09;17.95;;;16.20;;
15194;SDS011;7698;42.478;23.756;2022-11-20T05:39:35;16.27;;;14.73;;
15194;SDS011;7698;42.478;23.756;2022-11-20T05:42:02;15.90;;;14.40;;
15194;SDS011;7698;42.478;23.756;2022-11-20T05:44:46;17.77;;;16.08;;
15194;SDS011;7698;42.478;23.756;2022-11-20T05:47:12;17.00;;;15.52;;
15194;SDS011;7698;42.478;23.756;2022-11-20T05:49:39;18.00;;;16.40;;
15194;SDS011;7698;42.478;23.756;2022-11-20T05:52:07;16.98;;;15.35;;
15194;SDS011;7698;42.478;23.756;2022-11-20T05:54:33;14.80;;;13.50;;
15194;SDS011;7698;42.478;23.756;2022-11-20T05:57:00;12.80;;;11.60;;
15194;SDS011;7698;42.478;23.756;2022-11-20T05:59:26;12.45;;;11.35;;
15194;SDS011;7698;42.478;23.756;2022-11-20T06:01:53;11.07;;;9.77;;
15194;SDS011;7698;42.478;23.756;2022-11-20T06:04:20;12.45;;;11.27;;
15194;SDS011;7698;42.478;23.756;2022-11-20T06:06:46;9.73;;;8.93;;
15194;SDS011;7698;42.478;23.756;2022-11-20T06:09:14;11.55;;;8.82;;
15194;SDS011;7698;42.478;23.756;2022-11-20T06:11:41;8.60;;;7.70;;
15194;SDS011;7698;42.478;23.756;2022-11-20T06:14:07;8.57;;;7.85;;
15194;SDS011;7698;42.478;23.756;2022-11-20T06:16:34;14.35;;;13.20;;
15194;SDS011;7698;42.478;23.756;2022-11-20T06:19:00;9.30;;;8.40;;
15194;SDS011;7698;42.478;23.756;2022-11-20T06:21:27;10.27;;;9.30;;
15194;SDS011;7698;42.478;23.756;2022-11-20T06:23:54;8.48;;;7.72;;
15194;SDS011;7698;42.478;23.756;2022-11-20T06:26:22;11.35;;;10.45;;
15194;SDS011;7698;42.478;23.756;2022-11-20T06:28:49;8.60;;;7.90;;
15194;SDS011;7698;42.478;23.756;2022-11-20T06:31:17;7.55;;;6.95;;
15194;SDS011;7698;42.478;23.756;2022-11-20T06:33:44;7.22;;;6.63;;
15194;SDS011;7698;42.478;23.756;2022-11-20T06:36:11;8.60;;;7.80;;
15194;SDS011;7698;42.478;23.756;2022-11-20T06:38:38;13.50;;;12.13;;
15194;SDS011;7698;42.478;23.756;2022-11-20T06:41:05;12.30;;;11.30;;
15194;SDS011;7698;42.478;23.756;2022-11-20T06:43:33;17.80;;;16.10;;
15194;SDS011;7698;42.478;23.756;2022-11-20T06:46:00;15.57;;;14.10;;
15194;SDS011;7698;42.478;23.756;2022-11-20T06:48:27;9.00;;;8.30;;
15194;SDS011;7698;42.478;23.756;2022-11-20T06:50:54;5.60;;;4.97;;
15194;SDS011;7698;42.478;23.756;2022-11-20T06:53:21;5.90;;;5.40;;
15194;SDS011;7698;42.478;23.756;2022-11-20T06:55:47;6.43;;;5.90;;
15194;SDS011;7698;42.478;23.756;2022-11-20T06:58:14;6.85;;;6.25;;
15194;SDS011;7698;42.478;23.756;2022-11-20T07:00:43;8.15;;;7.40;;
15194;SDS011;7698;42.478;23.756;2022-11-20T07:03:10;8.30;;;7.60;;
15194;SDS011;7698;42.478;23.756;2022-11-20T07:05:37;8.73;;;7.78;;
15194;SDS011;7698;42.478;23.756;2022-11-20T07:08:05;9.40;;;8.63;;
15194;SDS011;7698;42.478;23.756;2022-11-20T07:10:32;9.00;;;8.30;;
15194;SDS011;7698;42.478;23.756;2022-11-20T07:12:58;8.02;;;7.43;;
15194;SDS011;7698;42.478;23.756;2022-11-20T07:15:25;8.23;;;7.43;;
15194;SDS011;7698;42.478;23.756;2022-11-20T07:17:53;9.07;;;8.35;;
15194;SDS011;7698;42.478;23.756;2022-11-20T07:20:20;7.68;;;6.97;;
15194;SDS011;7698;42.478;23.756;2022-11-20T07:22:47;6.40;;;5.90;;
15194;SDS011;7698;42.478;23.756;2022-11-20T07:25:19;6.78;;;6.07;;
15194;SDS011;7698;42.478;23.756;2022-11-20T07:27:45;8.00;;;7.22;;
15194;SDS011;7698;42.478;23.756;2022-11-20T07:32:39;9.45;;;8.55;;
15194;SDS011;7698;42.478;23.756;2022-11-20T07:35:07;10.27;;;9.23;;
15194;SDS011;7698;42.478;23.756;2022-11-20T07:37:34;10.48;;;9.48;;
15194;SDS011;7698;42.478;23.756;2022-11-20T07:40:01;10.10;;;9.13;;
15194;SDS011;7698;42.478;23.756;2022-11-20T07:42:28;12.32;;;11.15;;
15194;SDS011;7698;42.478;23.756;2022-11-20T07:44:55;13.60;;;12.30;;
15194;SDS011;7698;42.478;23.756;2022-11-20T07:47:22;13.45;;;12.13;;
15194;SDS011;7698;42.478;23.756;2022-11-20T07:49:48;14.88;;;13.50;;
15194;SDS011;7698;42.478;23.756;2022-11-20T07:52:16;13.57;;;12.40;;
15194;SDS011;7698;42.478;23.756;2022-11-20T07:54:43;12.32;;;11.30;;
15194;SDS011;7698;42.478;23.756;2022-11-20T07:57:09;11.13;;;10.10;;
15194;SDS011;7698;42.478;23.756;2022-11-20T07:59:36;12.15;;;11.05;;
15194;SDS011;7698;42.478;23.756;2022-11-20T08:02:03;13.43;;;12.32;;
15194;SDS011;7698;42.478;23.756;2022-11-20T08:04:30;14.43;;;13.20;;
15194;SDS011;7698;42.478;23.756;2022-11-20T08:06:58;13.23;;;12.10;;
15194;SDS011;7698;42.478;23.756;2022-11-20T08:09:26;12.00;;;10.82;;
15194;SDS011;7698;42.478;23.756;2022-11-20T08:11:53;14.85;;;13.52;;
15194;SDS011;7698;42.478;23.756;2022-11-20T08:14:37;15.45;;;14.13;;
15194;SDS011;7698;42.478;23.756;2022-11-20T08:17:04;16.42;;;14.93;;
15194;SDS011;7698;42.478;23.756;2022-11-20T08:19:31;16.27;;;14.77;;
15194;SDS011;7698;42.478;23.756;2022-11-20T08:21:57;16.00;;;14.43;;
15194;SDS011;7698;42.478;23.756;2022-11-20T08:24:26;15.48;;;14.15;;
15194;SDS011;7698;42.478;23.756;2022-11-20T08:26:52;14.05;;;12.70;;
15194;SDS011;7698;42.478;23.756;2022-11-20T08:29:19;12.02;;;10.82;;
15194;SDS011;7698;42.478;23.756;2022-11-20T08:31:46;11.70;;;10.70;;
15194;SDS011;7698;42.478;23.756;2022-11-20T08:34:13;11.45;;;10.45;;
15194;SDS011;7698;42.478;23.756;2022-11-20T08:36:39;10.63;;;9.60;;
15194;SDS011;7698;42.478;23.756;2022-11-20T08:39:06;10.30;;;9.40;;
15194;SDS011;7698;42.478;23.756;2022-11-20T08:41:34;12.73;;;11.43;;
15194;SDS011;7698;42.478;23.756;2022-11-20T08:44:02;9.57;;;8.75;;
15194;SDS011;7698;42.478;23.756;2022-11-20T08:46:31;8.50;;;7.70;;
15194;SDS011;7698;42.478;23.756;2022-11-20T08:48:59;8.27;;;7.45;;
15194;SDS011;7698;42.478;23.756;2022-11-20T08:51:26;8.07;;;7.38;;
15194;SDS011;7698;42.478;23.756;2022-11-20T08:53:52;7.88;;;7.18;;
15194;SDS011;7698;42.478;23.756;2022-11-20T08:56:19;9.10;;;8.30;;
15194;SDS011;7698;42.478;23.756;2022-11-20T08:58:47;8.00;;;7.20;;
15194;SDS011;7698;42.478;23.756;2022-11-20T09:01:14;8.98;;;8.10;;
15194;SDS011;7698;42.478;23.756;2022-11-20T09:03:40;13.13;;;11.98;;
15194;SDS011;7698;42.478;23.756;2022-11-20T09:06:07;13.70;;;12.40;;
15194;SDS011;7698;42.478;23.756;2022-11-20T09:08:34;12.48;;;11.27;;
15194;SDS011;7698;42.478;23.756;2022-11-20T09:11:01;10.40;;;9.40;;
15194;SDS011;7698;42.478;23.756;2022-11-20T09:13:28;10.35;;;9.35;;
15194;SDS011;7698;42.478;23.756;2022-11-20T09:15:56;11.68;;;10.50;;
15194;SDS011;7698;42.478;23.756;2022-11-20T09:18:23;11.00;;;9.43;;
15194;SDS011;7698;42.478;23.756;2022-11-20T09:20:49;10.90;;;9.80;;
15194;SDS011;7698;42.478;23.756;2022-11-20T09:23:16;10.35;;;9.45;;
15194;SDS011;7698;42.478;23.756;2022-11-20T09:25:43;8.02;;;7.22;;
15194;SDS011;7698;42.478;23.756;2022-11-20T09:28:10;7.18;;;6.57;;
15194;SDS011;7698;42.478;23.756;2022-11-20T09:30:37;6.80;;;6.30;;
15194;SDS011;7698;42.478;23.756;2022-11-20T09:33:05;6.50;;;5.90;;
15194;SDS011;7698;42.478;23.756;2022-11-20T09:35:32;6.85;;;6.25;;
15194;SDS011;7698;42.478;23.756;2022-11-20T09:38:03;10.45;;;7.07;;
15194;SDS011;7698;42.478;23.756;2022-11-20T09:40:30;8.27;;;7.47;;
15194;SDS011;7698;42.478;23.756;2022-11-20T09:42:57;5.32;;;4.82;;
15194;SDS011;7698;42.478;23.756;2022-11-20T09:45:30;4.95;;;4.53;;
15194;SDS011;7698;42.478;23.756;2022-11-20T09:48:04;4.68;;;4.18;;
15194;SDS011;7698;42.478;23.756;2022-11-20T09:50:38;6.93;;;3.95;;
15194;SDS011;7698;42.478;23.756;2022-11-20T09:53:12;3.20;;;2.92;;
15194;SDS011;7698;42.478;23.756;2022-11-20T09:55:39;3.20;;;2.78;;
15194;SDS011;7698;42.478;23.756;2022-11-20T09:58:06;2.88;;;2.67;;
15194;SDS011;7698;42.478;23.756;2022-11-20T10:00:34;3.00;;;2.50;;
15194;SDS011;7698;42.478;23.756;2022-11-20T10:03:03;2.53;;;2.22;;
15194;SDS011;7698;42.478;23.756;2022-11-20T10:05:33;3.25;;;1.95;;
15194;SDS011;7698;42.478;23.756;2022-11-20T10:08:04;3.03;;;2.50;;
15194;SDS011;7698;42.478;23.756;2022-11-20T10:10:35;2.30;;;1.80;;
15194;SDS011;7698;42.478;23.756;2022-11-20T10:13:09;3.28;;;2.42;;
15194;SDS011;7698;42.478;23.756;2022-11-20T10:15:41;2.30;;;2.08;;
15194;SDS011;7698;42.478;23.756;2022-11-20T10:18:13;2.40;;;1.90;;
15194;SDS011;7698;42.478;23.756;2022-11-20T10:20:46;3.83;;;2.80;;
15194;SDS011;7698;42.478;23.756;2022-11-20T10:23:24;2.92;;;2.45;;
15194;SDS011;7698;42.478;23.756;2022-11-20T10:25:55;5.25;;;2.53;;
15194;SDS011;7698;42.478;23.756;2022-11-20T10:28:28;4.43;;;3.30;;
15194;SDS011;7698;42.478;23.756;2022-11-20T10:31:00;4.28;;;3.42;;
15194;SDS011;7698;42.478;23.756;2022-11-20T10:33:29;5.45;;;3.90;;
15194;SDS011;7698;42.478;23.756;2022-11-20T10:35:59;5.28;;;2.75;;
15194;SDS011;7698;42.478;23.756;2022-11-20T10:38:34;3.20;;;2.63;;
15194;SDS011;7698;42.478;23.756;2022-11-20T10:41:03;3.03;;;2.58;;
15194;SDS011;7698;42.478;23.756;2022-11-20T10:43:59;4.40;;;3.40;;
15194;SDS011;7698;42.478;23.756;2022-11-20T10:46:33;4.70;;;3.53;;
15194;SDS011;7698;42.478;23.756;2022-11-20T10:49:02;3.80;;;2.78;;
15194;SDS011;7698;42.478;23.756;2022-11-20T10:51:33;4.40;;;2.53;;
15194;SDS011;7698;42.478;23.756;2022-11-20T10:54:10;3.33;;;2.38;;
15194;SDS011;7698;42.478;23.756;2022-11-20T10:56:38;4.47;;;2.53;;
15194;SDS011;7698;42.478;23.756;2022-11-20T10:59:28;3.00;;;2.33;;
15194;SDS011;7698;42.478;23.756;2022-11-20T11:01:57;2.20;;;2.00;;
15194;SDS011;7698;42.478;23.756;2022-11-20T11:04:30;2.70;;;2.45;;
15194;SDS011;7698;42.478;23.756;2022-11-20T11:07:01;4.22;;;2.35;;
15194;SDS011;7698;42.478;23.756;2022-11-20T11:09:34;2.53;;;2.20;;
15194;SDS011;7698;42.478;23.756;2022-11-20T11:12:05;2.35;;;2.13;;
15194;SDS011;7698;42.478;23.756;2022-11-20T11:14:41;4.10;;;1.90;;
15194;SDS011;7698;42.478;23.756;2022-11-20T11:17:17;2.58;;;2.20;;
15194;SDS011;7698;42.478;23.756;2022-11-20T11:19:45;3.45;;;2.88;;
15194;SDS011;7698;42.478;23.756;2022-11-20T11:22:15;7.32;;;3.30;;
15194;SDS011;7698;42.478;23.756;2022-11-20T11:24:44;5.40;;;3.00;;
15194;SDS011;7698;42.478;23.756;2022-11-20T11:27:17;4.38;;;3.00;;
15194;SDS011;7698;42.478;23.756;2022-11-20T11:29:44;4.70;;;2.50;;
15194;SDS011;7698;42.478;23.756;2022-11-20T11:32:11;3.30;;;2.58;;
15194;SDS011;7698;42.478;23.756;2022-11-20T11:34:38;3.65;;;2.28;;
15194;SDS011;7698;42.478;23.756;2022-11-20T11:37:10;4.60;;;2.28;;
15194;SDS011;7698;42.478;23.756;2022-11-20T11:39:37;2.30;;;1.80;;
15194;SDS011;7698;42.478;23.756;2022-11-20T11:42:07;2.17;;;1.70;;
15194;SDS011;7698;42.478;23.756;2022-11-20T11:44:37;2.95;;;2.65;;
15194;SDS011;7698;42.478;23.756;2022-11-20T11:47:30;4.30;;;2.65;;
15194;SDS011;7698;42.478;23.756;2022-11-20T11:50:02;3.03;;;2.30;;
15194;SDS011;7698;42.478;23.756;2022-11-20T11:52:29;3.55;;;2.13;;
15194;SDS011;7698;42.478;23.756;2022-11-20T11:54:57;3.33;;;1.85;;
15194;SDS011;7698;42.478;23.756;2022-11-20T11:57:28;2.45;;;2.00;;
15194;SDS011;7698;42.478;23.756;2022-11-20T11:59:59;2.55;;;1.85;;
15194;SDS011;7698;42.478;23.756;2022-11-20T12:02:35;4.10;;;2.38;;
15194;SDS011;7698;42.478;23.756;2022-11-20T12:05:04;3.80;;;2.40;;
15194;SDS011;7698;42.478;23.756;2022-11-20T12:07:36;3.13;;;2.58;;
15194;SDS011;7698;42.478;23.756;2022-11-20T12:10:04;4.38;;;3.30;;
15194;SDS011;7698;42.478;23.756;2022-11-20T12:12:34;4.43;;;3.08;;
15194;SDS011;7698;42.478;23.756;2022-11-20T12:15:03;2.78;;;2.33;;
15194;SDS011;7698;42.478;23.756;2022-11-20T12:17:30;2.35;;;2.15;;
15194;SDS011;7698;42.478;23.756;2022-11-20T12:19:57;2.35;;;2.15;;
15194;SDS011;7698;42.478;23.756;2022-11-20T12:22:26;3.45;;;1.60;;
15194;SDS011;7698;42.478;23.756;2022-11-20T12:24:56;2.40;;;1.90;;
15194;SDS011;7698;42.478;23.756;2022-11-20T12:30:14;2.50;;;1.60;;
15194;SDS011;7698;42.478;23.756;2022-11-20T12:32:47;3.60;;;1.65;;
15194;SDS011;7698;42.478;23.756;2022-11-20T12:35:22;3.85;;;1.58;;
15194;SDS011;7698;42.478;23.756;2022-11-20T12:37:59;3.72;;;2.78;;
15194;SDS011;7698;42.478;23.756;2022-11-20T12:40:32;2.20;;;1.63;;
15194;SDS011;7698;42.478;23.756;2022-11-20T12:43:05;4.40;;;2.03;;
15194;SDS011;7698;42.478;23.756;2022-11-20T12:45:56;3.30;;;1.60;;
15194;SDS011;7698;42.478;23.756;2022-11-20T12:51:17;3.88;;;2.40;;
15194;SDS011;7698;42.478;23.756;2022-11-20T12:53:48;4.30;;;2.30;;
15194;SDS011;7698;42.478;23.756;2022-11-20T12:56:21;3.78;;;2.75;;
15194;SDS011;7698;42.478;23.756;2022-11-20T12:58:49;2.88;;;2.38;;
15194;SDS011;7698;42.478;23.756;2022-11-20T13:01:25;3.17;;;2.83;;
15194;SDS011;7698;42.478;23.756;2022-11-20T13:04:22;2.72;;;2.53;;
15194;SDS011;7698;42.478;23.756;2022-11-20T13:06:53;4.40;;;2.72;;
15194;SDS011;7698;42.478;23.756;2022-11-20T13:09:20;3.88;;;3.30;;
15194;SDS011;7698;42.478;23.756;2022-11-20T13:11:50;2.40;;;2.20;;
15194;SDS011;7698;42.478;23.756;2022-11-20T13:14:21;1.48;;;1.35;;
15194;SDS011;7698;42.478;23.756;2022-11-20T13:16:54;2.05;;;1.20;;
15194;SDS011;7698;42.478;23.756;2022-11-20T13:19:24;1.25;;;1.15;;
15194;SDS011;7698;42.478;23.756;2022-11-20T13:21:52;2.72;;;1.52;;
15194;SDS011;7698;42.478;23.756;2022-11-20T13:24:26;3.72;;;2.53;;
15194;SDS011;7698;42.478;23.756;2022-11-20T13:27:05;5.75;;;3.22;;
15194;SDS011;7698;42.478;23.756;2022-11-20T13:29:32;2.67;;;2.38;;
15194;SDS011;7698;42.478;23.756;2022-11-20T13:32:04;3.67;;;1.88;;
15194;SDS011;7698;42.478;23.756;2022-11-20T13:34:31;3.53;;;2.08;;
15194;SDS011;7698;42.478;23.756;2022-11-20T13:36:58;2.67;;;2.25;;
15194;SDS011;7698;42.478;23.756;2022-11-20T13:39:29;2.65;;;2.28;;
15194;SDS011;7698;42.478;23.756;2022-11-20T13:41:57;2.80;;;2.20;;
15194;SDS011;7698;42.478;23.756;2022-11-20T13:44:25;2.78;;;2.38;;
15194;SDS011;7698;42.478;23.756;2022-11-20T13:46:53;1.55;;;1.45;;
15194;SDS011;7698;42.478;23.756;2022-11-20T13:49:23;1.80;;;1.63;;
15194;SDS011;7698;42.478;23.756;2022-11-20T13:51:51;1.90;;;1.80;;
15194;SDS011;7698;42.478;23.756;2022-11-20T13:54:42;2.25;;;2.08;;
15194;SDS011;7698;42.478;23.756;2022-11-20T13:57:21;3.05;;;2.70;;
15194;SDS011;7698;42.478;23.756;2022-11-20T13:59:55;3.83;;;2.55;;
15194;SDS011;7698;42.478;23.756;2022-11-20T14:02:23;2.63;;;2.30;;
15194;SDS011;7698;42.478;23.756;2022-11-20T14:04:53;4.57;;;4.18;;
15194;SDS011;7698;42.478;23.756;2022-11-20T14:07:21;5.43;;;4.60;;
15194;SDS011;7698;42.478;23.756;2022-11-20T14:09:49;6.78;;;4.70;;
15194;SDS011;7698;42.478;23.756;2022-11-20T14:12:18;6.30;;;4.22;;
15194;SDS011;7698;42.478;23.756;2022-11-20T14:14:47;6.45;;;5.68;;
15194;SDS011;7698;42.478;23.756;2022-11-20T14:17:17;5.05;;;4.55;;
15194;SDS011;7698;42.478;23.756;2022-11-20T14:19:44;4.65;;;3.63;;
15194;SDS011;7698;42.478;23.756;2022-11-20T14:22:17;3.88;;;3.03;;
15194;SDS011;7698;42.478;23.756;2022-11-20T14:24:44;3.60;;;2.83;;
15194;SDS011;7698;42.478;23.756;2022-11-20T14:27:12;3.83;;;2.50;;
15194;SDS011;7698;42.478;23.756;2022-11-20T14:29:39;4.53;;;3.15;;
15194;SDS011;7698;42.478;23.756;2022-11-20T14:32:08;4.25;;;3.17;;
15194;SDS011;7698;42.478;23.756;2022-11-20T14:34:37;8.18;;;3.22;;
15194;SDS011;7698;42.478;23.756;2022-11-20T14:37:09;5.03;;;3.83;;
15194;SDS011;7698;42.478;23.756;2022-11-20T14:39:40;5.20;;;3.75;;
15194;SDS011;7698;42.478;23.756;2022-11-20T14:42:11;7.57;;;6.78;;
15194;SDS011;7698;42.478;23.756;2022-11-20T14:44:40;7.80;;;6.50;;
15194;SDS011;7698;42.478;23.756;2022-11-20T14:47:08;7.70;;;6.90;;
15194;SDS011;7698;42.478;23.756;2022-11-20T14:49:37;6.82;;;6.15;;
15194;SDS011;7698;42.478;23.756;2022-11-20T14:52:11;6.40;;;5.80;;